Time;durP1;ratioP1;P1;durP2;ratioP2;P2;SDS_P1;SDS_P2;PMS_P1;PMS_P2;Temp;Humidity;BMP_temperature;BMP_pressure;BME280_temperature;BME280_humidity;BME280_pressure;Samples;Min_cycle;Max_cycle;Signal;HPM_P1;HPM_P2
2023/12/28 00:00:54;;;;;;;34.27;20.20;;;3.50;1.00;;;;;;5060601;28;20726;-78
2023/12/28 00:03:21;;;;;;;38.50;20.63;;;3.40;1.00;;;;;;5090196;28;20326;-79
2023/12/28 00:05:52;;;;;;;42.60;21.73;;;3.40;1.00;;;;;;5064015;28;20762;-78
2023/12/28 00:08:20;;;;;;;40.37;21.97;;;3.40;1.00;;;;;;5064755;28;20307;-79
2023/12/28 00:10:49;;;;;;;38.63;22.50;;;3.40;1.00;;;;;;5062132;28;20630;-77
2023/12/28 00:13:17;;;;;;;40.60;21.67;;;3.50;1.00;;;;;;5056962;28;20228;-79
2023/12/28 00:15:46;;;;;;;40.97;22.63;;;3.40;1.00;;;;;;5065554;28;20224;-79
2023/12/28 00:18:14;;;;;;;43.47;23.27;;;3.40;1.00;;;;;;5065990;28;20228;-78
2023/12/28 00:20:43;;;;;;;44.17;23.33;;;3.40;1.00;;;;;;5066916;28;20231;-78
2023/12/28 00:23:13;;;;;;;42.53;23.73;;;3.40;1.00;;;;;;5066309;28;20300;-78
2023/12/28 00:25:42;;;;;;;42.87;23.47;;;3.30;1.00;;;;;;5060727;28;20244;-79
2023/12/28 00:28:10;;;;;;;40.17;23.37;;;3.30;1.00;;;;;;5059244;28;20220;-79
2023/12/28 00:30:39;;;;;;;43.07;23.73;;;3.20;1.00;;;;;;5061586;28;20312;-79
2023/12/28 00:33:07;;;;;;;49.97;26.53;;;3.10;1.00;;;;;;5061167;28;20228;-79
2023/12/28 00:35:36;;;;;;;52.97;26.80;;;3.10;1.00;;;;;;5064720;28;20683;-78
2023/12/28 00:38:04;;;;;;;47.00;25.23;;;3.00;1.00;;;;;;5063956;28;20220;-78
2023/12/28 00:40:34;;;;;;;47.23;25.00;;;2.90;1.00;;;;;;5063968;28;20227;-79
2023/12/28 00:43:03;;;;;;;48.80;25.03;;;2.90;1.00;;;;;;5064909;28;20274;-80
2023/12/28 00:45:32;;;;;;;44.83;23.97;;;3.00;1.00;;;;;;5064633;28;20230;-79
2023/12/28 00:48:00;;;;;;;46.80;24.63;;;3.00;1.00;;;;;;5060500;28;20224;-79
2023/12/28 00:50:31;;;;;;;48.57;24.50;;;3.00;1.00;;;;;;5063647;28;20227;-78
2023/12/28 00:53:00;;;;;;;51.00;24.83;;;2.90;1.00;;;;;;5059941;28;20227;-79
2023/12/28 00:55:29;;;;;;;45.27;24.67;;;2.90;1.00;;;;;;5061611;28;20228;-79
2023/12/28 00:58:00;;;;;;;49.33;25.07;;;2.90;1.00;;;;;;5052776;28;20630;-79
2023/12/28 01:00:29;;;;;;;50.80;25.17;;;3.00;1.00;;;;;;5057340;28;20278;-79
2023/12/28 01:02:57;;;;;;;40.13;23.13;;;3.00;1.00;;;;;;5063057;28;20318;-79
2023/12/28 01:05:28;;;;;;;44.20;23.53;;;3.00;1.00;;;;;;5063077;28;20220;-79
2023/12/28 01:07:57;;;;;;;44.90;22.90;;;3.00;1.00;;;;;;5062840;28;20268;-79
2023/12/28 01:10:25;;;;;;;45.17;22.17;;;3.00;1.00;;;;;;5062806;28;20224;-80
2023/12/28 01:12:53;;;;;;;46.33;22.33;;;3.00;1.00;;;;;;5048845;28;20602;-79
2023/12/28 01:15:23;;;;;;;41.27;20.13;;;3.10;1.00;;;;;;5058367;28;20331;-78
2023/12/28 01:17:52;;;;;;;40.47;20.37;;;3.00;1.00;;;;;;5058002;28;20239;-79
2023/12/28 01:20:21;;;;;;;40.10;21.17;;;3.00;1.00;;;;;;5061966;28;20691;-79
2023/12/28 01:22:50;;;;;;;38.80;20.30;;;3.00;1.00;;;;;;5059837;28;20243;-79
2023/12/28 01:25:19;;;;;;;38.80;22.00;;;3.10;1.00;;;;;;5064992;28;20659;-79
2023/12/28 01:27:47;;;;;;;45.57;21.73;;;3.00;1.00;;;;;;5063332;28;20791;-79
2023/12/28 01:30:17;;;;;;;34.50;19.97;;;3.00;1.00;;;;;;5063637;28;20303;-80
2023/12/28 01:32:47;;;;;;;39.13;20.13;;;3.00;1.00;;;;;;5062537;28;20304;-80
2023/12/28 01:35:16;;;;;;;37.17;20.63;;;3.10;1.00;;;;;;5066521;28;20251;-79
2023/12/28 01:37:44;;;;;;;44.80;20.67;;;3.00;1.00;;;;;;5068210;28;20227;-78
2023/12/28 01:40:13;;;;;;;42.23;21.23;;;3.10;1.00;;;;;;5056927;28;20212;-79
2023/12/28 01:42:41;;;;;;;43.20;21.30;;;3.00;1.00;;;;;;5062599;28;20231;-78
2023/12/28 01:45:10;;;;;;;38.90;19.43;;;3.00;1.00;;;;;;5064062;28;20247;-77
2023/12/28 01:47:39;;;;;;;40.27;19.70;;;3.00;1.00;;;;;;5067618;28;20250;-77
2023/12/28 01:50:10;;;;;;;38.67;19.70;;;3.00;1.00;;;;;;5060032;28;20270;-77
2023/12/28 01:52:39;;;;;;;42.50;21.60;;;3.00;1.00;;;;;;5059551;28;20343;-78
2023/12/28 01:55:09;;;;;;;41.40;19.30;;;3.00;1.00;;;;;;5063706;28;20422;-77
2023/12/28 01:57:38;;;;;;;36.40;19.17;;;3.00;1.00;;;;;;5061460;28;20320;-79
2023/12/28 02:00:08;;;;;;;37.77;19.20;;;2.80;1.00;;;;;;5064817;28;20286;-77
2023/12/28 02:02:46;;;;;;;41.73;19.93;;;2.80;1.00;;;;;;5062167;28;20733;-77
2023/12/28 02:05:16;;;;;;;40.40;18.93;;;2.80;1.00;;;;;;5064827;28;20250;-77
2023/12/28 02:07:44;;;;;;;41.63;19.33;;;2.90;1.00;;;;;;5066304;28;20224;-78
2023/12/28 02:10:13;;;;;;;34.17;17.87;;;2.90;1.00;;;;;;5065488;28;20242;-77
2023/12/28 02:12:42;;;;;;;34.73;17.03;;;2.80;1.00;;;;;;5081434;28;20247;-77
2023/12/28 02:15:11;;;;;;;40.47;17.70;;;2.90;1.00;;;;;;5062634;28;20235;-78
2023/12/28 02:17:48;;;;;;;34.47;18.50;;;2.80;1.00;;;;;;5061955;28;20230;-78
2023/12/28 02:20:20;;;;;;;38.07;18.07;;;2.80;1.00;;;;;;5053734;28;20235;-78
2023/12/28 02:22:49;;;;;;;39.87;18.03;;;2.80;1.00;;;;;;5062569;28;20322;-78
2023/12/28 02:25:19;;;;;;;33.33;17.47;;;2.80;1.00;;;;;;5071057;28;20730;-78
2023/12/28 02:27:50;;;;;;;38.70;17.50;;;2.80;1.00;;;;;;5062975;28;20216;-75
2023/12/28 02:30:22;;;;;;;32.83;17.93;;;2.90;1.00;;;;;;5058502;28;20263;-79
2023/12/28 02:33:01;;;;;;;33.67;17.47;;;2.90;1.00;;;;;;5061522;28;20739;-79
2023/12/28 02:35:33;;;;;;;35.20;16.80;;;3.00;1.00;;;;;;5061681;28;20289;-77
2023/12/28 02:38:06;;;;;;;35.03;17.70;;;2.90;1.00;;;;;;5061279;28;20304;-77
2023/12/28 02:40:38;;;;;;;31.60;15.80;;;3.00;1.00;;;;;;5062397;28;20232;-77
2023/12/28 02:43:08;;;;;;;31.53;16.43;;;2.90;1.00;;;;;;5063850;28;20722;-78
2023/12/28 02:45:37;;;;;;;33.93;16.53;;;3.00;1.00;;;;;;5058913;28;20666;-77
2023/12/28 02:48:07;;;;;;;35.77;16.40;;;3.00;1.00;;;;;;5065798;28;20258;-79
2023/12/28 02:50:36;;;;;;;29.17;15.17;;;3.00;1.00;;;;;;5062756;28;20228;-77
2023/12/28 02:53:05;;;;;;;34.73;15.37;;;3.10;1.00;;;;;;5067157;28;20299;-77
2023/12/28 02:55:33;;;;;;;28.87;15.37;;;3.10;1.00;;;;;;5066006;28;20753;-77
2023/12/28 02:58:04;;;;;;;36.37;15.77;;;3.10;1.00;;;;;;5065733;28;20228;-78
2023/12/28 03:00:32;;;;;;;33.63;16.20;;;3.30;1.00;;;;;;5064533;28;20752;-78
2023/12/28 03:03:01;;;;;;;30.53;14.73;;;3.30;1.00;;;;;;5064370;28;20228;-78
2023/12/28 03:05:30;;;;;;;32.80;14.90;;;3.30;1.00;;;;;;5064700;28;20732;-78
2023/12/28 03:07:59;;;;;;;27.30;14.50;;;3.30;1.00;;;;;;5055071;28;20239;-77
2023/12/28 03:10:28;;;;;;;27.77;14.40;;;3.30;1.00;;;;;;5067942;28;20228;-78
2023/12/28 03:12:57;;;;;;;28.87;14.93;;;3.30;1.00;;;;;;5059711;28;20260;-78
2023/12/28 03:15:28;;;;;;;29.33;15.30;;;3.20;1.00;;;;;;5060293;28;20235;-78
2023/12/28 03:17:56;;;;;;;26.23;14.83;;;3.30;1.00;;;;;;5073229;28;20255;-78
2023/12/28 03:20:26;;;;;;;40.77;15.53;;;3.20;1.00;;;;;;5068810;28;20564;-78
2023/12/28 03:22:54;;;;;;;29.90;14.23;;;3.20;1.00;;;;;;5066859;28;20686;-78
2023/12/28 03:25:22;;;;;;;31.97;14.40;;;3.10;1.00;;;;;;5067127;28;20231;-78
2023/12/28 03:27:51;;;;;;;30.17;13.97;;;3.20;1.00;;;;;;5077750;28;20304;-78
2023/12/28 03:30:19;;;;;;;23.87;13.17;;;3.20;1.00;;;;;;5068765;28;20224;-78
2023/12/28 03:32:50;;;;;;;27.07;13.20;;;3.20;1.00;;;;;;5097195;28;20399;-79
2023/12/28 03:35:19;;;;;;;27.83;13.77;;;3.20;1.00;;;;;;5061048;28;20224;-77
2023/12/28 03:37:47;;;;;;;26.40;12.20;;;3.20;1.00;;;;;;5057276;28;20224;-78
2023/12/28 03:40:16;;;;;;;29.37;13.40;;;3.20;1.00;;;;;;5068022;28;20772;-79
2023/12/28 03:42:47;;;;;;;25.93;13.37;;;3.20;1.00;;;;;;5066867;28;20224;-78
2023/12/28 03:45:16;;;;;;;26.43;12.50;;;3.30;1.00;;;;;;5067811;28;20228;-77
2023/12/28 03:47:44;;;;;;;26.70;13.77;;;3.20;1.00;;;;;;5066162;28;20318;-78
2023/12/28 03:50:15;;;;;;;24.80;12.93;;;3.30;1.00;;;;;;5061056;28;20220;-77
2023/12/28 03:52:44;;;;;;;26.27;12.87;;;3.40;1.00;;;;;;5067064;28;20343;-78
2023/12/28 03:55:12;;;;;;;27.13;13.13;;;3.40;1.00;;;;;;5061846;28;20220;-77
2023/12/28 03:57:42;;;;;;;30.53;12.77;;;3.40;1.00;;;;;;5064363;28;20232;-78
2023/12/28 04:00:11;;;;;;;25.70;12.77;;;3.30;1.00;;;;;;5063531;28;20615;-77
2023/12/28 04:02:40;;;;;;;28.17;12.77;;;3.40;1.00;;;;;;5064123;28;20251;-78
2023/12/28 04:05:09;;;;;;;28.87;13.13;;;3.40;1.00;;;;;;5064263;28;20263;-79
2023/12/28 04:07:39;;;;;;;28.47;12.87;;;3.30;1.00;;;;;;5057666;28;20728;-77
2023/12/28 04:10:08;;;;;;;26.20;12.27;;;3.40;1.00;;;;;;5056788;28;20232;-78
2023/12/28 04:12:38;;;;;;;28.87;11.77;;;3.40;1.00;;;;;;5060657;28;20296;-78
2023/12/28 04:15:07;;;;;;;30.73;12.23;;;3.30;1.00;;;;;;5063542;28;20235;-78
2023/12/28 04:17:37;;;;;;;33.00;12.90;;;3.30;1.00;;;;;;5063696;28;20212;-78
2023/12/28 04:20:08;;;;;;;27.20;11.53;;;3.30;1.00;;;;;;5064416;28;20217;-78
2023/12/28 04:22:36;;;;;;;26.03;11.03;;;3.40;1.00;;;;;;5060669;28;20221;-78
2023/12/28 04:25:06;;;;;;;25.20;11.43;;;3.40;1.00;;;;;;5064455;28;20323;-78
2023/12/28 04:27:35;;;;;;;22.83;11.13;;;3.50;1.00;;;;;;5067815;28;20269;-78
2023/12/28 04:30:05;;;;;;;21.80;11.10;;;3.50;1.00;;;;;;5072310;28;20313;-79
2023/12/28 04:32:34;;;;;;;24.53;11.00;;;3.50;1.00;;;;;;5058670;28;20228;-77
2023/12/28 04:35:04;;;;;;;21.53;11.03;;;3.40;1.00;;;;;;5066586;28;20575;-78
2023/12/28 04:37:34;;;;;;;21.17;10.90;;;3.50;1.00;;;;;;5063937;28;20316;-78
2023/12/28 04:40:03;;;;;;;22.67;10.90;;;3.60;1.00;;;;;;5065071;28;20224;-78
2023/12/28 04:42:34;;;;;;;22.50;10.97;;;3.50;1.00;;;;;;5062766;28;20227;-78
2023/12/28 04:45:03;;;;;;;24.00;10.97;;;3.50;1.00;;;;;;5062962;28;20329;-78
2023/12/28 04:47:32;;;;;;;24.13;10.90;;;3.60;1.00;;;;;;5064207;28;20216;-77
2023/12/28 04:50:00;;;;;;;26.90;10.97;;;3.60;1.00;;;;;;5057576;28;20240;-79
2023/12/28 04:52:29;;;;;;;26.27;10.73;;;3.50;1.00;;;;;;5054452;28;20225;-78
2023/12/28 04:54:58;;;;;;;30.33;11.00;;;3.70;1.00;;;;;;5058977;28;20242;-78
2023/12/28 04:57:28;;;;;;;23.73;11.47;;;3.60;1.00;;;;;;5063198;28;20223;-76
2023/12/28 04:59:58;;;;;;;23.23;10.33;;;3.50;1.00;;;;;;5065317;28;20273;-78
2023/12/28 05:02:26;;;;;;;19.63;10.23;;;3.60;1.00;;;;;;5063816;28;20711;-78
2023/12/28 05:04:55;;;;;;;21.23;10.50;;;3.60;1.00;;;;;;5058300;28;20236;-78
2023/12/28 05:07:24;;;;;;;23.27;10.73;;;3.60;1.00;;;;;;5064357;28;20250;-77
2023/12/28 05:09:52;;;;;;;20.60;10.60;;;3.60;1.00;;;;;;5056544;28;20224;-79
2023/12/28 05:12:21;;;;;;;25.37;10.83;;;3.60;1.00;;;;;;5092154;28;20355;-76
2023/12/28 05:14:50;;;;;;;23.77;10.97;;;3.70;1.00;;;;;;5075368;28;20244;-78
2023/12/28 05:17:19;;;;;;;22.60;11.07;;;3.70;1.00;;;;;;5061431;28;20401;-78
2023/12/28 05:19:48;;;;;;;18.37;10.17;;;3.60;1.00;;;;;;5057077;28;20230;-79
2023/12/28 05:22:17;;;;;;;20.60;9.80;;;3.70;1.00;;;;;;5077855;28;20282;-78
2023/12/28 05:24:45;;;;;;;23.77;10.10;;;3.70;1.00;;;;;;5062915;28;20236;-77
2023/12/28 05:27:14;;;;;;;21.20;10.57;;;3.70;1.00;;;;;;5059260;28;20703;-80
2023/12/28 05:29:42;;;;;;;24.57;10.73;;;3.70;1.00;;;;;;5064348;28;20248;-78
2023/12/28 05:32:11;;;;;;;22.47;10.73;;;3.60;1.00;;;;;;5058764;28;20212;-78
2023/12/28 05:34:40;;;;;;;26.37;10.90;;;3.60;1.00;;;;;;5062332;28;20224;-77
2023/12/28 05:37:09;;;;;;;21.20;10.43;;;3.70;1.00;;;;;;5063451;28;20791;-78
2023/12/28 05:39:37;;;;;;;24.83;11.23;;;3.60;1.00;;;;;;5062643;28;20232;-78
2023/12/28 05:42:07;;;;;;;22.63;10.37;;;3.60;1.00;;;;;;5063453;28;20227;-78
2023/12/28 05:44:35;;;;;;;24.23;10.90;;;3.60;1.00;;;;;;5063742;28;20722;-77
2023/12/28 05:47:04;;;;;;;22.47;10.97;;;3.50;1.00;;;;;;5056447;28;20248;-79
2023/12/28 05:49:33;;;;;;;22.37;10.13;;;3.60;1.00;;;;;;5060880;28;21101;-77
2023/12/28 05:52:03;;;;;;;25.40;11.07;;;3.60;1.00;;;;;;5063657;28;20262;-77
2023/12/28 05:54:31;;;;;;;22.33;10.90;;;3.60;1.00;;;;;;5063415;28;20255;-77
2023/12/28 05:57:00;;;;;;;26.63;11.67;;;3.60;1.00;;;;;;5057809;28;20216;-77
2023/12/28 05:59:29;;;;;;;26.87;11.67;;;3.70;1.00;;;;;;5061198;28;20224;-78
2023/12/28 06:01:57;;;;;;;24.43;11.47;;;3.60;1.00;;;;;;5061677;28;20216;-77
2023/12/28 06:04:26;;;;;;;21.97;10.80;;;3.50;1.00;;;;;;5072532;28;20753;-78
2023/12/28 06:06:55;;;;;;;21.37;10.90;;;3.60;1.00;;;;;;5055740;28;20707;-77
2023/12/28 06:09:25;;;;;;;21.83;11.17;;;3.60;1.00;;;;;;5060139;28;20228;-79
2023/12/28 06:11:53;;;;;;;23.57;10.80;;;3.60;1.00;;;;;;5097629;28;20314;-78
2023/12/28 06:14:22;;;;;;;22.60;10.37;;;3.60;1.00;;;;;;5059126;28;20240;-78
2023/12/28 06:16:50;;;;;;;22.60;11.17;;;3.50;1.00;;;;;;5060360;28;20231;-78
2023/12/28 06:19:19;;;;;;;24.93;10.53;;;3.60;1.00;;;;;;5058167;28;20223;-78
2023/12/28 06:21:48;;;;;;;24.77;11.00;;;3.50;1.00;;;;;;5065346;28;21240;-79
2023/12/28 06:24:17;;;;;;;21.47;10.37;;;3.50;1.00;;;;;;5067591;28;20220;-78
2023/12/28 06:26:47;;;;;;;26.10;10.87;;;3.50;1.00;;;;;;5069531;28;20745;-78
2023/12/28 06:29:16;;;;;;;22.33;11.00;;;3.50;1.00;;;;;;5062333;28;20217;-79
2023/12/28 06:31:44;;;;;;;20.33;10.57;;;3.60;1.00;;;;;;5060231;28;20289;-77
2023/12/28 06:34:13;;;;;;;22.00;10.87;;;3.60;1.00;;;;;;5067187;28;20307;-78
2023/12/28 06:36:43;;;;;;;22.77;11.13;;;3.60;1.00;;;;;;5066448;28;20269;-78
2023/12/28 06:39:11;;;;;;;22.07;10.93;;;3.60;1.00;;;;;;5068841;28;20232;-77
2023/12/28 06:41:40;;;;;;;24.70;11.33;;;3.60;1.00;;;;;;5073428;28;20227;-77
2023/12/28 06:44:13;;;;;;;20.03;10.63;;;3.50;1.00;;;;;;5066727;28;20227;-78
2023/12/28 06:46:42;;;;;;;20.43;9.93;;;3.50;1.00;;;;;;5068479;28;20230;-77
2023/12/28 06:49:10;;;;;;;21.00;10.10;;;3.50;1.00;;;;;;5068505;28;20614;-77
2023/12/28 06:51:39;;;;;;;22.47;11.07;;;3.50;1.00;;;;;;5064980;28;20241;-78
2023/12/28 06:54:08;;;;;;;20.47;10.13;;;3.60;1.00;;;;;;5058499;28;20220;-76
2023/12/28 06:56:36;;;;;;;25.07;11.07;;;3.60;1.00;;;;;;5068245;28;20228;-80
2023/12/28 06:59:04;;;;;;;24.13;10.83;;;3.60;1.00;;;;;;5068889;28;20279;-78
2023/12/28 07:01:34;;;;;;;24.97;11.00;;;3.70;1.00;;;;;;5068831;28;20297;-77
2023/12/28 07:04:03;;;;;;;20.97;10.73;;;3.60;1.00;;;;;;5064388;28;20216;-78
2023/12/28 07:06:32;;;;;;;18.70;10.10;;;3.70;1.00;;;;;;5057509;28;20252;-76
2023/12/28 07:09:00;;;;;;;22.20;11.17;;;3.70;1.00;;;;;;5071159;28;20304;-78
2023/12/28 07:11:29;;;;;;;21.13;10.83;;;3.70;1.00;;;;;;5064499;28;20216;-78
2023/12/28 07:13:57;;;;;;;22.37;10.67;;;3.80;1.00;;;;;;5066092;28;20219;-78
2023/12/28 07:16:26;;;;;;;21.10;10.73;;;3.90;1.00;;;;;;5059415;28;20695;-79
2023/12/28 07:18:56;;;;;;;20.93;10.30;;;3.90;1.00;;;;;;5068483;28;20285;-79
2023/12/28 07:21:25;;;;;;;22.77;11.00;;;3.70;1.00;;;;;;5060735;28;20700;-78
2023/12/28 07:23:53;;;;;;;22.90;11.43;;;3.80;1.00;;;;;;5063010;28;20220;-78
2023/12/28 07:26:22;;;;;;;21.77;11.03;;;3.80;1.00;;;;;;5067450;28;20592;-76
2023/12/28 07:28:51;;;;;;;22.97;11.30;;;3.90;1.00;;;;;;5060506;28;20236;-78
2023/12/28 07:31:25;;;;;;;23.37;10.87;;;3.90;1.00;;;;;;5067225;28;20236;-79
2023/12/28 07:33:56;;;;;;;24.83;11.33;;;3.80;1.00;;;;;;5066928;28;20228;-78
2023/12/28 07:36:26;;;;;;;23.90;11.80;;;3.80;1.00;;;;;;5055302;28;20231;-78
2023/12/28 07:38:55;;;;;;;22.07;11.60;;;3.80;1.00;;;;;;5061892;28;20323;-79
2023/12/28 07:41:23;;;;;;;25.00;11.30;;;3.80;1.00;;;;;;5065748;28;20240;-80
2023/12/28 07:43:52;;;;;;;22.73;11.67;;;4.00;1.00;;;;;;5097110;28;20232;-78
2023/12/28 07:46:20;;;;;;;21.10;10.80;;;4.00;1.00;;;;;;5066847;28;20232;-80
2023/12/28 07:48:49;;;;;;;22.83;12.03;;;4.00;1.00;;;;;;5096394;28;20311;-78
2023/12/28 07:51:19;;;;;;;22.47;11.40;;;4.10;1.00;;;;;;5072103;28;20220;-79
2023/12/28 07:53:47;;;;;;;20.03;12.23;;;4.10;1.00;;;;;;5060113;28;20247;-79
2023/12/28 07:56:24;;;;;;;23.47;11.57;;;4.20;1.00;;;;;;5061843;28;20717;-80
2023/12/28 07:58:53;;;;;;;22.30;11.43;;;4.20;1.00;;;;;;5062476;28;20715;-79
2023/12/28 08:01:22;;;;;;;24.70;12.13;;;4.30;1.00;;;;;;5056580;28;20286;-79
2023/12/28 08:03:51;;;;;;;26.93;11.70;;;4.30;1.00;;;;;;5065337;28;20223;-78
2023/12/28 08:06:21;;;;;;;24.07;12.30;;;4.40;1.00;;;;;;5062480;28;20232;-78
2023/12/28 08:08:50;;;;;;;23.30;12.17;;;4.50;1.00;;;;;;5062375;28;20407;-79
2023/12/28 08:11:19;;;;;;;22.20;11.40;;;4.60;1.00;;;;;;5062730;28;20751;-79
2023/12/28 08:13:47;;;;;;;19.57;11.37;;;4.70;1.00;;;;;;5051007;28;20308;-78
2023/12/28 08:16:16;;;;;;;24.40;12.90;;;4.80;1.00;;;;;;5060465;28;20225;-80
2023/12/28 08:18:45;;;;;;;24.23;12.07;;;4.80;1.00;;;;;;5063468;28;20686;-79
2023/12/28 08:21:14;;;;;;;24.53;12.00;;;4.90;1.00;;;;;;5060112;28;20219;-78
2023/12/28 08:23:43;;;;;;;22.97;12.43;;;4.90;1.00;;;;;;5066804;28;20764;-78
2023/12/28 08:26:12;;;;;;;24.33;12.60;;;4.90;1.00;;;;;;5063071;28;20221;-79
2023/12/28 08:28:41;;;;;;;22.03;12.07;;;4.90;1.00;;;;;;5058243;28;20335;-81
2023/12/28 08:31:09;;;;;;;25.00;12.70;;;5.00;1.00;;;;;;5065184;28;20239;-78
2023/12/28 08:33:38;;;;;;;22.40;11.97;;;5.00;1.00;;;;;;5065259;28;20715;-78
2023/12/28 08:36:09;;;;;;;22.03;12.47;;;5.10;1.00;;;;;;5047414;28;20219;-78
2023/12/28 08:38:37;;;;;;;24.33;11.87;;;5.20;1.00;;;;;;5076186;28;20247;-78
2023/12/28 08:41:08;;;;;;;21.27;12.50;;;5.20;1.00;;;;;;5065715;28;20224;-78
2023/12/28 08:43:37;;;;;;;23.77;12.77;;;5.40;1.00;;;;;;5065936;28;21413;-77
2023/12/28 08:46:09;;;;;;;25.67;13.47;;;5.40;1.00;;;;;;5065295;28;20224;-78
2023/12/28 08:48:38;;;;;;;29.37;13.73;;;5.50;1.00;;;;;;5060754;28;20707;-78
2023/12/28 08:51:06;;;;;;;28.17;14.40;;;5.60;1.00;;;;;;5063027;28;20223;-78
2023/12/28 08:53:35;;;;;;;26.00;13.53;;;5.70;1.00;;;;;;5059177;28;20692;-78
2023/12/28 08:56:04;;;;;;;24.53;12.77;;;5.70;1.00;;;;;;5064788;28;20215;-77
2023/12/28 08:58:34;;;;;;;23.17;12.60;;;5.80;1.00;;;;;;5060090;28;20708;-78
2023/12/28 09:01:03;;;;;;;22.97;12.10;;;5.90;1.00;;;;;;5063745;28;20319;-77
2023/12/28 09:03:32;;;;;;;19.93;12.20;;;5.90;1.00;;;;;;5061065;28;20242;-78
2023/12/28 09:06:00;;;;;;;24.87;12.27;;;6.10;1.00;;;;;;5061185;28;20722;-77
2023/12/28 09:08:30;;;;;;;22.97;12.43;;;6.10;1.00;;;;;;5058524;28;20228;-77
2023/12/28 09:10:59;;;;;;;24.90;12.60;;;6.20;1.00;;;;;;5056510;28;20225;-78
2023/12/28 09:13:27;;;;;;;24.30;12.03;;;6.30;1.00;;;;;;5058522;28;20309;-78
2023/12/28 09:15:58;;;;;;;22.50;12.20;;;6.40;1.00;;;;;;5064719;28;20218;-77
2023/12/28 09:18:28;;;;;;;23.13;12.10;;;6.50;1.00;;;;;;5060228;28;20220;-78
2023/12/28 09:20:57;;;;;;;23.00;11.80;;;6.50;1.00;;;;;;5059794;28;20255;-78
2023/12/28 09:23:25;;;;;;;20.23;11.37;;;6.60;1.00;;;;;;5063614;28;20233;-80
2023/12/28 09:25:54;;;;;;;20.90;12.07;;;6.70;1.00;;;;;;5066110;28;20233;-78
2023/12/28 09:28:23;;;;;;;22.40;11.63;;;6.80;1.00;;;;;;5064777;28;20228;-78
2023/12/28 09:30:51;;;;;;;25.87;11.57;;;6.80;1.00;;;;;;5060761;28;20237;-78
2023/12/28 09:33:21;;;;;;;21.27;10.80;;;6.90;1.00;;;;;;5063642;28;20969;-78
2023/12/28 09:35:50;;;;;;;21.37;10.47;;;6.90;1.00;;;;;;5059807;28;20303;-79
2023/12/28 09:38:21;;;;;;;19.97;10.30;;;7.00;1.00;;;;;;5065482;28;20254;-78
2023/12/28 09:40:53;;;;;;;18.43;10.20;;;7.10;1.00;;;;;;5064613;28;20230;-78
2023/12/28 09:43:24;;;;;;;17.43;8.90;;;7.10;1.00;;;;;;5061525;28;20270;-78
2023/12/28 09:45:53;;;;;;;16.33;9.67;;;7.20;1.00;;;;;;5062637;28;20234;-78
2023/12/28 09:48:25;;;;;;;19.57;9.30;;;7.30;1.00;;;;;;5053968;28;20277;-78
2023/12/28 09:50:57;;;;;;;15.30;8.70;;;7.30;1.00;;;;;;5052066;28;20221;-79
2023/12/28 09:53:27;;;;;;;17.03;8.97;;;7.30;1.00;;;;;;5063955;28;20215;-78
2023/12/28 09:55:55;;;;;;;16.17;8.83;;;7.40;1.00;;;;;;5063883;28;20712;-79
2023/12/28 09:58:24;;;;;;;15.07;8.03;;;7.40;1.00;;;;;;5064692;28;20216;-78
2023/12/28 10:00:53;;;;;;;13.70;7.63;;;7.50;1.00;;;;;;5062851;28;20226;-78
2023/12/28 10:03:21;;;;;;;15.37;7.47;;;7.60;1.00;;;;;;5059878;28;20226;-78
2023/12/28 10:05:51;;;;;;;13.27;7.73;;;7.60;1.00;;;;;;5062732;28;20243;-77
2023/12/28 10:08:20;;;;;;;14.03;7.47;;;7.70;1.00;;;;;;5060735;28;20238;-78
2023/12/28 10:10:50;;;;;;;14.73;7.70;;;7.70;1.00;;;;;;5065290;28;20230;-78
2023/12/28 10:13:20;;;;;;;13.73;7.37;;;7.80;1.00;;;;;;5062275;28;20220;-79
2023/12/28 10:15:50;;;;;;;14.00;7.33;;;7.80;1.00;;;;;;5056887;28;20227;-78
2023/12/28 10:18:20;;;;;;;13.53;6.93;;;7.80;1.00;;;;;;5059668;28;20316;-77
2023/12/28 10:20:53;;;;;;;13.13;7.70;;;7.90;1.00;;;;;;5054256;28;20593;-78
2023/12/28 10:23:22;;;;;;;15.37;7.67;;;7.90;1.00;;;;;;5062986;28;20224;-79
2023/12/28 10:25:54;;;;;;;11.57;7.43;;;8.00;1.00;;;;;;5064210;28;20224;-78
2023/12/28 10:28:22;;;;;;;14.53;7.80;;;8.00;1.00;;;;;;5073826;28;20687;-78
2023/12/28 10:30:56;;;;;;;15.10;8.07;;;8.00;1.00;;;;;;5058554;28;20266;-78
2023/12/28 10:33:25;;;;;;;10.83;7.40;;;8.10;1.00;;;;;;5063626;28;20231;-77
2023/12/28 10:35:59;;;;;;;15.63;7.50;;;8.10;1.00;;;;;;5060908;28;20224;-79
2023/12/28 10:38:32;;;;;;;13.97;7.77;;;8.10;1.00;;;;;;5065308;28;20220;-78
2023/12/28 10:41:00;;;;;;;13.57;7.23;;;8.10;1.00;;;;;;5062162;28;20227;-79
2023/12/28 10:43:30;;;;;;;13.67;7.73;;;8.20;1.00;;;;;;5056670;28;20232;-78
2023/12/28 10:46:00;;;;;;;12.73;6.90;;;8.10;1.00;;;;;;5058126;28;20229;-78
2023/12/28 10:48:33;;;;;;;11.33;7.60;;;8.20;1.00;;;;;;5054070;28;20281;-78
2023/12/28 10:51:06;;;;;;;13.63;7.40;;;8.30;1.00;;;;;;5066561;28;20230;-77
2023/12/28 10:53:39;;;;;;;13.23;7.57;;;8.20;1.00;;;;;;5059169;28;20232;-80
2023/12/28 10:56:21;;;;;;;13.65;7.38;;;8.30;1.00;;;;;;5057439;28;20234;-78
2023/12/28 10:58:53;;;;;;;12.03;7.50;;;8.30;1.00;;;;;;5063982;28;20251;-78
2023/12/28 11:01:27;;;;;;;14.50;7.20;;;8.20;1.00;;;;;;5061412;28;20230;-78
2023/12/28 11:04:09;;;;;;;13.40;7.20;;;8.20;1.00;;;;;;5055994;28;20220;-78
2023/12/28 11:06:41;;;;;;;14.63;8.00;;;8.20;1.00;;;;;;5076176;28;20212;-78
2023/12/28 11:09:13;;;;;;;14.43;7.72;;;8.20;1.00;;;;;;5063546;28;20221;-78
2023/12/28 11:11:42;;;;;;;10.77;6.65;;;8.20;1.00;;;;;;5067449;28;20242;-78
2023/12/28 11:14:11;;;;;;;14.10;7.20;;;8.20;1.00;;;;;;5064236;28;20289;-79
2023/12/28 11:16:41;;;;;;;13.37;8.00;;;8.20;1.00;;;;;;5058305;28;20228;-78
2023/12/28 11:19:10;;;;;;;13.50;7.87;;;8.20;1.00;;;;;;5064545;28;20223;-77
2023/12/28 11:21:41;;;;;;;14.10;8.37;;;8.30;1.00;;;;;;5061095;28;20234;-77
2023/12/28 11:24:10;;;;;;;13.90;8.10;;;8.20;1.00;;;;;;5075904;28;20235;-78
2023/12/28 11:26:39;;;;;;;12.80;7.65;;;8.10;1.00;;;;;;5063103;28;20305;-78
2023/12/28 11:29:07;;;;;;;13.30;7.73;;;8.00;1.00;;;;;;5068444;28;20220;-77
2023/12/28 11:31:36;;;;;;;14.85;8.15;;;8.00;1.00;;;;;;5064659;28;20235;-77
2023/12/28 11:34:07;;;;;;;13.80;7.80;;;8.10;1.00;;;;;;5062771;28;20224;-78
2023/12/28 11:36:47;;;;;;;16.88;8.02;;;8.00;1.00;;;;;;5059244;28;20232;-77
2023/12/28 11:39:27;;;;;;;17.13;10.50;;;8.10;1.00;;;;;;5070661;28;20215;-78
2023/12/28 11:42:02;;;;;;;16.58;9.00;;;8.10;1.00;;;;;;5055910;28;20633;-77
2023/12/28 11:44:31;;;;;;;14.37;8.63;;;8.10;1.00;;;;;;5063070;28;20238;-78
2023/12/28 11:47:00;;;;;;;19.13;9.00;;;8.00;1.00;;;;;;5055862;28;20270;-78
2023/12/28 11:49:29;;;;;;;17.98;10.00;;;8.00;1.00;;;;;;5066130;28;20798;-78
2023/12/28 11:52:02;;;;;;;17.20;9.82;;;8.00;1.00;;;;;;5064386;28;20227;-79
2023/12/28 11:54:30;;;;;;;18.40;9.02;;;8.10;1.00;;;;;;5066060;28;20220;-78
2023/12/28 11:56:59;;;;;;;15.45;9.25;;;8.10;1.00;;;;;;5066725;28;20330;-79
2023/12/28 11:59:28;;;;;;;13.13;8.27;;;8.10;1.00;;;;;;5062584;28;20266;-79
2023/12/28 12:01:56;;;;;;;12.32;6.65;;;8.20;1.00;;;;;;5069465;28;20284;-79
2023/12/28 12:04:25;;;;;;;15.10;8.10;;;8.20;1.00;;;;;;5067812;28;20290;-77
2023/12/28 12:06:54;;;;;;;13.75;8.13;;;8.20;1.00;;;;;;5069228;28;20706;-79
2023/12/28 12:09:24;;;;;;;12.05;7.60;;;8.20;1.00;;;;;;5082411;28;20324;-78
2023/12/28 12:11:53;;;;;;;14.13;7.82;;;8.20;1.00;;;;;;5068051;28;20227;-78
2023/12/28 12:14:22;;;;;;;10.73;7.33;;;8.30;1.00;;;;;;5075069;28;20227;-79
2023/12/28 12:16:52;;;;;;;13.77;7.85;;;8.30;1.00;;;;;;5065218;28;20328;-79
2023/12/28 12:19:21;;;;;;;15.07;7.18;;;8.30;1.00;;;;;;5065127;28;20228;-79
2023/12/28 12:21:50;;;;;;;15.65;8.52;;;8.30;1.00;;;;;;5069241;28;20232;-78
2023/12/28 12:24:19;;;;;;;17.30;7.78;;;8.30;1.00;;;;;;5059946;28;20228;-77
2023/12/28 12:26:50;;;;;;;16.00;8.85;;;8.40;1.00;;;;;;5066503;28;20318;-78
2023/12/28 12:29:20;;;;;;;15.65;8.63;;;8.40;1.00;;;;;;5065017;28;20232;-78
2023/12/28 12:31:58;;;;;;;14.30;7.90;;;8.30;1.00;;;;;;5058272;28;20232;-78
2023/12/28 12:34:26;;;;;;;12.60;8.60;;;8.30;1.00;;;;;;5060752;28;20228;-78
2023/12/28 12:36:55;;;;;;;16.20;8.27;;;8.40;1.00;;;;;;5062512;28;20576;-78
2023/12/28 12:39:24;;;;;;;13.18;8.30;;;8.40;1.00;;;;;;5058751;28;20224;-78
2023/12/28 12:41:56;;;;;;;13.07;8.00;;;8.40;1.00;;;;;;5058007;28;20321;-78
2023/12/28 12:44:25;;;;;;;16.15;8.40;;;8.40;1.00;;;;;;5065937;28;20251;-77
2023/12/28 12:47:00;;;;;;;14.85;8.18;;;8.50;1.00;;;;;;5061883;28;20675;-78
2023/12/28 12:49:29;;;;;;;15.02;8.25;;;8.50;1.00;;;;;;5060459;28;20270;-77
2023/12/28 12:51:57;;;;;;;14.32;8.60;;;8.50;1.00;;;;;;5081650;28;20219;-80
2023/12/28 12:54:30;;;;;;;15.98;7.95;;;8.50;1.00;;;;;;5063792;28;20220;-78
2023/12/28 12:57:00;;;;;;;12.73;7.85;;;8.60;1.00;;;;;;5062496;28;20580;-78
2023/12/28 12:59:30;;;;;;;13.85;7.97;;;8.50;1.00;;;;;;5061304;28;20220;-78
2023/12/28 13:02:01;;;;;;;13.52;7.30;;;8.60;1.00;;;;;;5065291;28;20265;-78